Time;durP1;ratioP1;P1;durP2;ratioP2;P2;SDS_P1;SDS_P2;PMS_P1;PMS_P2;Temp;Humidity;BMP_temperature;BMP_pressure;BME280_temperature;BME280_humidity;BME280_pressure;Samples;Min_cycle;Max_cycle;Signal;HPM_P1;HPM_P2
2022/10/22 01:18:54;;;;;;;37.08;20.05;;;;;;;12.23;100.00;100279.84;5004316;28;20438;-85
2022/10/22 01:21:25;;;;;;;34.17;18.42;;;;;;;12.22;100.00;100273.66;4983656;28;20064;-85
2022/10/22 01:24:32;;;;;;;32.28;17.73;;;;;;;12.23;100.00;100274.53;4984043;28;20557;-87
2022/10/22 01:27:10;;;;;;;33.55;17.27;;;;;;;12.21;100.00;100281.69;4996202;28;20518;-87
2022/10/22 01:29:56;;;;;;;30.30;17.38;;;;;;;12.22;100.00;100289.56;4984909;28;20396;-86
2022/10/22 01:32:25;;;;;;;30.98;17.05;;;;;;;12.21;100.00;100295.78;4963518;28;20388;-85
2022/10/22 01:34:55;;;;;;;33.60;16.50;;;;;;;12.21;100.00;100294.91;4966602;28;20455;-86
2022/10/22 01:37:23;;;;;;;33.42;18.52;;;;;;;12.21;100.00;100289.63;4961711;28;20092;-85
2022/10/22 01:39:50;;;;;;;34.47;18.52;;;;;;;12.21;100.00;100309.03;4998073;28;20038;-85
2022/10/22 01:42:17;;;;;;;39.50;19.55;;;;;;;12.22;100.00;100316.03;4965060;28;20045;-85
2022/10/22 01:44:44;;;;;;;39.80;21.27;;;;;;;12.24;100.00;100314.22;4995525;28;20056;-84
2022/10/22 01:47:26;;;;;;;37.88;19.80;;;;;;;12.23;100.00;100308.97;4959265;28;20092;-85
2022/10/22 01:50:31;;;;;;;31.38;17.60;;;;;;;12.21;100.00;100308.16;4984302;28;20526;-85
2022/10/22 01:53:16;;;;;;;39.45;19.30;;;;;;;12.22;100.00;100315.19;5011312;28;20072;-86
2022/10/22 01:55:58;;;;;;;41.17;18.88;;;;;;;12.20;100.00;100309.94;4961544;28;20038;-85
2022/10/22 01:58:35;;;;;;;32.00;16.65;;;;;;;12.18;100.00;100306.44;4994776;28;20096;-85
2022/10/22 02:01:17;;;;;;;46.00;22.38;;;;;;;12.18;100.00;100301.16;4990628;28;20416;-86
2022/10/22 02:14:10;;;;;;;30.52;16.95;;;;;;;12.09;100.00;100306.75;4991727;28;20048;-85
2022/10/22 02:17:28;;;;;;;30.58;17.05;;;;;;;12.06;100.00;100313.03;4977800;28;20049;-85
2022/10/22 02:20:00;;;;;;;35.15;17.70;;;;;;;12.06;100.00;100315.69;4975546;28;20048;-86
2022/10/22 02:22:28;;;;;;;31.17;18.17;;;;;;;12.05;100.00;100315.72;4979751;28;20073;-85
2022/10/22 02:24:57;;;;;;;32.88;18.83;;;;;;;12.04;100.00;100303.41;4978038;28;20065;-85
2022/10/22 02:27:29;;;;;;;34.15;18.27;;;;;;;12.02;100.00;100300.81;4979263;28;20545;-85
2022/10/22 02:30:01;;;;;;;37.00;18.05;;;;;;;12.02;100.00;100297.28;4960177;28;20042;-85
2022/10/22 02:32:33;;;;;;;34.42;18.02;;;;;;;12.01;100.00;100312.28;4977731;28;20045;-85
2022/10/22 02:35:00;;;;;;;30.83;17.02;;;;;;;12.00;100.00;100307.06;4984357;28;20095;-86
2022/10/22 02:37:27;;;;;;;32.60;16.92;;;;;;;11.99;100.00;100307.97;4960594;28;20069;-86
2022/10/22 02:39:55;;;;;;;29.15;16.88;;;;;;;12.00;100.00;100301.75;4976685;28;20081;-85
2022/10/22 02:42:24;;;;;;;35.05;17.77;;;;;;;11.99;100.00;100306.19;4986418;28;20041;-85
2022/10/22 02:44:51;;;;;;;30.83;17.27;;;;;;;11.99;100.00;100307.97;4965810;28;20437;-85
2022/10/22 02:47:18;;;;;;;26.95;15.55;;;;;;;11.99;100.00;100314.13;4966782;28;20047;-86
2022/10/22 02:49:45;;;;;;;30.40;17.35;;;;;;;12.04;100.00;100312.22;4978413;28;20462;-86
2022/10/22 02:52:12;;;;;;;33.63;19.40;;;;;;;12.05;100.00;100311.31;4973166;28;20042;-87
2022/10/22 02:54:38;;;;;;;36.65;19.20;;;;;;;12.10;100.00;100319.06;5022831;28;20037;-86
2022/10/22 02:57:05;;;;;;;35.10;19.35;;;;;;;12.10;100.00;100316.44;4971350;28;20034;-86
2022/10/22 02:59:33;;;;;;;33.08;17.00;;;;;;;12.11;100.00;100303.16;4966844;28;20475;-86
2022/10/22 03:01:59;;;;;;;33.15;19.15;;;;;;;12.13;100.00;100311.06;4977013;28;20458;-85
2022/10/22 03:04:26;;;;;;;33.90;18.73;;;;;;;12.16;100.00;100312.72;4961162;28;20079;-86
2022/10/22 03:06:53;;;;;;;42.03;21.52;;;;;;;12.20;100.00;100327.63;4968066;28;20057;-86
2022/10/22 03:09:20;;;;;;;35.45;20.80;;;;;;;12.23;100.00;100322.22;4973484;28;20037;-86
2022/10/22 03:11:50;;;;;;;43.78;21.15;;;;;;;12.24;100.00;100321.28;4983025;28;20288;-85
2022/10/22 03:14:17;;;;;;;35.80;20.95;;;;;;;12.27;100.00;100321.19;4964231;28;20085;-86
2022/10/22 03:16:44;;;;;;;43.50;22.85;;;;;;;12.31;100.00;100326.34;4973643;28;20131;-86
2022/10/22 03:19:11;;;;;;;40.67;21.00;;;;;;;12.35;100.00;100319.16;4975978;28;20482;-85
2022/10/22 03:21:41;;;;;;;37.42;22.63;;;;;;;12.35;100.00;100317.34;5013975;28;20088;-85
2022/10/22 03:24:11;;;;;;;37.05;21.67;;;;;;;12.34;100.00;100312.97;4962270;28;20462;-86
2022/10/22 03:26:38;;;;;;;35.95;20.55;;;;;;;12.36;100.00;100305.00;4965826;28;20033;-85
2022/10/22 03:29:05;;;;;;;36.85;22.15;;;;;;;12.36;100.00;100300.56;4999123;28;20210;-86
2022/10/22 03:31:32;;;;;;;38.00;20.55;;;;;;;12.36;100.00;100315.59;4978920;28;20038;-86
2022/10/22 03:33:59;;;;;;;33.95;20.40;;;;;;;12.42;100.00;100314.50;4983208;28;20122;-86
2022/10/22 03:36:26;;;;;;;36.53;21.73;;;;;;;12.37;100.00;100312.03;4987898;28;20046;-86
2022/10/22 03:38:52;;;;;;;35.35;19.73;;;;;;;12.38;100.00;100325.22;4980925;28;20046;-85
2022/10/22 03:41:19;;;;;;;34.42;19.88;;;;;;;12.38;100.00;100325.22;4962746;28;20414;-85
2022/10/22 03:43:50;;;;;;;34.20;19.15;;;;;;;12.38;100.00;100319.06;4958680;28;20054;-84
2022/10/22 03:46:17;;;;;;;38.10;19.23;;;;;;;12.36;100.00;100316.47;4982516;28;20049;-85
2022/10/22 03:48:44;;;;;;;34.60;20.08;;;;;;;12.36;100.00;100323.56;4994135;28;20041;-85
2022/10/22 03:51:10;;;;;;;38.72;19.25;;;;;;;12.35;100.00;100327.09;4977385;28;20042;-85
2022/10/22 03:53:37;;;;;;;39.58;19.63;;;;;;;12.36;100.00;100319.13;4980690;28;20037;-85
2022/10/22 03:56:11;;;;;;;37.03;20.58;;;;;;;12.36;100.00;100332.38;4978804;28;20076;-85
2022/10/22 03:58:39;;;;;;;31.77;17.60;;;;;;;12.34;100.00;100326.22;4978397;28;20052;-85
2022/10/22 04:01:07;;;;;;;40.00;21.15;;;;;;;12.40;100.00;100328.69;4989983;28;20050;-86
2022/10/22 04:03:34;;;;;;;34.90;19.10;;;;;;;12.38;100.00;100333.19;4993434;28;20037;-85
2022/10/22 04:06:08;;;;;;;34.83;19.35;;;;;;;12.40;100.00;100326.03;4980716;28;20038;-85
2022/10/22 04:08:35;;;;;;;38.83;21.08;;;;;;;12.45;100.00;100332.97;4980174;28;20045;-86
2022/10/22 04:11:02;;;;;;;36.25;19.35;;;;;;;12.42;100.00;100339.22;5005635;28;20042;-86
2022/10/22 04:13:28;;;;;;;32.67;19.70;;;;;;;12.42;100.00;100344.53;4965666;28;20465;-86
2022/10/22 04:15:55;;;;;;;37.58;19.02;;;;;;;12.43;100.00;100340.09;4972323;28;20037;-86
2022/10/22 04:18:22;;;;;;;37.53;20.55;;;;;;;12.49;100.00;100342.53;4982366;28;20053;-86
2022/10/22 04:20:50;;;;;;;32.88;19.77;;;;;;;12.48;100.00;100340.81;4977585;28;20065;-85
2022/10/22 04:23:17;;;;;;;30.85;17.05;;;;;;;12.47;100.00;100350.53;4976633;28;20098;-86
2022/10/22 04:25:44;;;;;;;34.75;20.42;;;;;;;12.47;100.00;100342.59;4981957;28;20037;-87
2022/10/22 04:28:10;;;;;;;36.92;19.45;;;;;;;12.47;100.00;100352.34;4977948;28;20407;-85
2022/10/22 04:30:37;;;;;;;33.63;19.30;;;;;;;12.46;100.00;100353.25;4990432;28;20626;-86
2022/10/22 04:33:04;;;;;;;37.45;20.00;;;;;;;12.44;100.00;100352.41;4975702;28;20515;-86
2022/10/22 04:35:30;;;;;;;32.25;17.48;;;;;;;12.43;100.00;100351.56;4979072;28;20037;-86
2022/10/22 04:37:57;;;;;;;31.63;17.45;;;;;;;12.44;100.00;100355.06;4994572;28;20040;-85
2022/10/22 04:40:24;;;;;;;33.70;18.20;;;;;;;12.43;100.00;100355.97;4964933;28;20076;-85
2022/10/22 04:42:50;;;;;;;30.48;16.73;;;;;;;12.43;100.00;100363.94;4968886;28;20053;-85
2022/10/22 04:45:17;;;;;;;32.17;17.48;;;;;;;12.43;100.00;100355.97;4981082;28;20053;-85
2022/10/22 04:47:44;;;;;;;31.98;17.52;;;;;;;12.42;100.00;100343.66;4979622;28;20044;-86
2022/10/22 04:50:10;;;;;;;32.80;18.27;;;;;;;12.42;100.00;100348.97;4970245;28;20052;-86
2022/10/22 04:52:37;;;;;;;32.78;19.25;;;;;;;12.46;100.00;100346.16;4965015;28;20041;-86
2022/10/22 04:55:04;;;;;;;35.25;20.25;;;;;;;12.43;100.00;100348.03;4982266;28;20522;-85
2022/10/22 04:57:31;;;;;;;29.83;15.75;;;;;;;12.45;100.00;100356.81;4967899;28;20046;-86
2022/10/22 04:59:58;;;;;;;32.97;18.83;;;;;;;12.42;100.00;100355.13;4967434;28;20081;-86
2022/10/22 05:02:25;;;;;;;34.22;18.98;;;;;;;12.43;100.00;100353.34;4982256;28;20068;-86
2022/10/22 05:04:52;;;;;;;34.40;19.33;;;;;;;12.40;100.00;100363.13;4986710;28;20080;-86
2022/10/22 05:07:18;;;;;;;35.63;18.88;;;;;;;12.43;100.00;100358.63;4996606;28;20030;-86
2022/10/22 05:09:45;;;;;;;37.40;18.80;;;;;;;12.42;100.00;100355.13;5018641;28;20057;-85
2022/10/22 05:12:12;;;;;;;31.83;18.75;;;;;;;12.40;100.00;100357.81;4983427;28;20153;-85
2022/10/22 05:14:38;;;;;;;32.40;17.20;;;;;;;12.38;100.00;100354.38;4981870;28;20174;-86
2022/10/22 05:17:10;;;;;;;31.05;16.77;;;;;;;12.38;100.00;100349.06;4966454;28;20062;-86
2022/10/22 05:19:37;;;;;;;35.13;19.38;;;;;;;12.39;100.00;100350.78;4980834;28;20048;-85
2022/10/22 05:22:04;;;;;;;31.95;17.52;;;;;;;12.38;100.00;100354.38;4961944;28;20523;-86
2022/10/22 05:24:32;;;;;;;30.60;16.33;;;;;;;12.38;100.00;100350.84;4979096;28;20038;-86
2022/10/22 05:26:59;;;;;;;29.70;16.30;;;;;;;12.38;100.00;100351.72;4995934;28;20042;-85
2022/10/22 05:29:26;;;;;;;31.25;17.63;;;;;;;12.42;100.00;100356.91;4981735;28;20038;-85
2022/10/22 05:31:53;;;;;;;32.05;17.90;;;;;;;12.41;100.00;100356.03;4978548;28;20049;-84
2022/10/22 05:34:19;;;;;;;34.85;18.33;;;;;;;12.43;100.00;100355.97;4979849;28;20052;-84
2022/10/22 05:36:46;;;;;;;30.38;18.13;;;;;;;12.43;100.00;100361.28;4992424;28;20499;-85
2022/10/22 05:39:13;;;;;;;31.67;17.05;;;;;;;12.39;100.00;100361.41;4995737;28;20049;-85
2022/10/22 05:41:40;;;;;;;30.85;18.30;;;;;;;12.44;100.00;100368.31;5013587;28;20037;-86
2022/10/22 05:44:07;;;;;;;31.10;18.33;;;;;;;12.39;100.00;100363.19;4978926;28;20626;-85
2022/10/22 05:46:34;;;;;;;29.73;15.73;;;;;;;12.38;100.00;100359.66;5004158;28;20285;-86
2022/10/22 05:49:03;;;;;;;30.75;17.92;;;;;;;12.39;100.00;100364.03;4976482;28;20056;-85
2022/10/22 05:51:31;;;;;;;29.85;17.85;;;;;;;12.39;100.00;100374.63;4956917;28;20475;-85
2022/10/22 05:54:00;;;;;;;28.35;17.02;;;;;;;12.39;100.00;100372.00;4992155;28;20095;-86
2022/10/22 05:56:28;;;;;;;33.80;18.17;;;;;;;12.40;100.00;100376.38;4961417;28;20049;-86
2022/10/22 05:58:55;;;;;;;30.85;19.08;;;;;;;12.39;100.00;100372.00;4960402;28;20046;-86
2022/10/22 06:01:30;;;;;;;29.38;18.02;;;;;;;12.38;100.00;100383.50;4961484;28;20050;-86
2022/10/22 06:04:03;;;;;;;27.73;15.60;;;;;;;12.37;100.00;100373.84;4961056;28;20041;-85
2022/10/22 06:06:37;;;;;;;29.50;18.48;;;;;;;12.39;100.00;100379.94;4973809;28;20044;-85
2022/10/22 06:09:05;;;;;;;;;;;;;;;12.38;100.00;100380.00;5007308;28;20037;-85
2022/10/22 06:11:32;;;;;;;30.75;17.60;;;;;;;12.36;100.00;100380.06;5006845;28;19952;-85
2022/10/22 06:14:01;;;;;;;31.15;17.92;;;;;;;12.37;100.00;100376.47;4982378;28;20049;-85
2022/10/22 06:16:28;;;;;;;39.67;25.40;;;;;;;12.42;100.00;100378.97;4971726;28;20037;-85
2022/10/22 06:18:57;;;;;;;34.78;21.15;;;;;;;12.41;100.00;100377.22;4991501;28;20499;-86
2022/10/22 06:21:24;;;;;;;36.13;21.98;;;;;;;12.47;100.00;100379.69;4975920;28;20049;-85
2022/10/22 06:23:50;;;;;;;32.13;19.42;;;;;;;12.45;100.00;100381.53;4976965;28;20499;-85
2022/10/22 06:26:17;;;;;;;31.38;17.65;;;;;;;12.45;100.00;100384.19;4996029;28;20054;-84
2022/10/22 06:28:44;;;;;;;31.23;18.45;;;;;;;12.50;100.00;100381.38;4970448;28;20388;-85
2022/10/22 06:31:10;;;;;;;33.45;18.50;;;;;;;12.52;100.00;100387.47;4973694;28;20487;-84
2022/10/22 06:33:41;;;;;;;30.80;16.80;;;;;;;12.49;100.00;100385.81;4969001;28;20099;-86
2022/10/22 06:36:13;;;;;;;31.52;17.90;;;;;;;12.51;100.00;100385.75;4993703;28;20479;-84
2022/10/22 06:38:41;;;;;;;30.30;19.13;;;;;;;12.54;100.00;100390.97;4991807;28;20040;-84
2022/10/22 06:41:13;;;;;;;32.33;19.85;;;;;;;12.57;100.00;100391.72;4990766;28;20042;-85
2022/10/22 06:43:44;;;;;;;34.08;20.58;;;;;;;12.62;100.00;100394.22;4988516;28;20065;-84
2022/10/22 06:46:11;;;;;;;31.50;17.23;;;;;;;12.62;100.00;100395.09;4983806;28;20048;-85
2022/10/22 06:48:48;;;;;;;28.75;17.33;;;;;;;12.63;100.00;100396.81;4979551;28;20122;-85
2022/10/22 06:51:15;;;;;;;25.25;16.38;;;;;;;12.65;100.00;100402.06;4971693;28;20487;-85
2022/10/22 06:53:42;;;;;;;25.67;16.38;;;;;;;12.70;100.00;100407.22;4977161;28;20466;-85
2022/10/22 06:56:13;;;;;;;30.73;19.00;;;;;;;12.67;100.00;100405.53;4976478;28;20050;-84
2022/10/22 06:58:40;;;;;;;27.60;16.08;;;;;;;12.70;100.00;100417.84;4961049;28;20064;-85
2022/10/22 07:01:11;;;;;;;30.75;17.48;;;;;;;12.75;100.00;100422.03;4979772;28;20074;-86
2022/10/22 07:03:39;;;;;;;30.10;17.60;;;;;;;12.77;100.00;100417.56;5011787;28;20080;-84
2022/10/22 07:06:11;;;;;;;28.55;16.85;;;;;;;12.77;100.00;100419.34;4956986;28;20092;-86
2022/10/22 07:08:38;;;;;;;30.55;18.38;;;;;;;12.81;100.00;100416.53;4992714;28;20041;-86
2022/10/22 07:11:17;;;;;;;28.00;15.80;;;;;;;12.78;100.00;100418.41;4970475;28;20047;-87
2022/10/22 07:13:44;;;;;;;29.38;18.10;;;;;;;12.80;100.00;100422.78;4988713;28;20419;-86
2022/10/22 07:16:11;;;;;;;29.65;17.27;;;;;;;12.88;100.00;100434.00;4978649;28;20049;-85
2022/10/22 07:18:38;;;;;;;29.98;18.15;;;;;;;12.91;100.00;100436.53;4959020;28;20038;-86
2022/10/22 07:21:06;;;;;;;27.95;15.88;;;;;;;12.90;100.00;100437.44;4992104;28;20041;-86
2022/10/22 07:23:33;;;;;;;30.77;17.10;;;;;;;12.92;100.00;100435.59;4959394;28;20042;-85
2022/10/22 07:26:05;;;;;;;24.65;16.65;;;;;;;12.95;100.00;100438.16;4972021;28;20540;-86
2022/10/22 07:28:33;;;;;;;31.02;17.63;;;;;;;13.15;100.00;100437.47;4964277;28;20126;-86
2022/10/22 07:31:00;;;;;;;29.30;16.48;;;;;;;13.09;100.00;100442.13;4979483;28;20042;-86
2022/10/22 07:33:27;;;;;;;27.40;16.80;;;;;;;13.10;100.00;100433.25;4995077;28;20037;-86
2022/10/22 07:35:58;;;;;;;28.23;17.45;;;;;;;13.19;100.00;100438.22;4962635;28;20038;-86
2022/10/22 07:38:25;;;;;;;25.60;16.75;;;;;;;13.17;100.00;100442.72;4978000;28;20038;-85
2022/10/22 07:40:52;;;;;;;28.52;17.25;;;;;;;13.24;100.00;100442.50;4963028;28;20046;-86
2022/10/22 07:43:19;;;;;;;25.80;15.73;;;;;;;13.25;100.00;100448.66;4963270;28;20045;-86
2022/10/22 07:45:46;;;;;;;22.60;15.02;;;;;;;13.24;100.00;100452.25;4994723;28;20041;-87
2022/10/22 07:48:13;;;;;;;26.20;15.85;;;;;;;13.21;100.00;100452.34;4962713;28;20100;-86
2022/10/22 07:50:40;;;;;;;25.80;16.15;;;;;;;13.29;100.00;100454.75;4978560;28;20050;-86
2022/10/22 07:53:07;;;;;;;26.63;17.42;;;;;;;13.36;100.00;100461.53;4996082;28;20328;-86
2022/10/22 07:55:34;;;;;;;23.52;14.77;;;;;;;13.45;100.00;100464.78;4963898;28;20146;-86
2022/10/22 07:58:01;;;;;;;25.05;15.90;;;;;;;13.38;100.00;100463.25;4979107;28;20042;-85
2022/10/22 08:00:28;;;;;;;22.48;14.95;;;;;;;13.47;100.00;100475.31;4996307;28;20037;-85
2022/10/22 08:02:54;;;;;;;22.52;15.45;;;;;;;13.53;100.00;100472.44;4979330;28;20034;-86
2022/10/22 08:05:21;;;;;;;21.65;14.30;;;;;;;13.62;100.00;100484.50;4963162;28;20096;-86
2022/10/22 08:07:48;;;;;;;24.65;14.68;;;;;;;13.62;100.00;100484.50;4994620;28;20041;-85
2022/10/22 08:10:14;;;;;;;24.95;14.85;;;;;;;13.65;100.00;100495.03;4964832;28;20100;-85
2022/10/22 08:12:41;;;;;;;25.27;14.95;;;;;;;13.67;100.00;100494.06;5010541;28;20088;-85
2022/10/22 08:15:08;;;;;;;23.05;14.77;;;;;;;13.68;100.00;100490.47;4963060;28;20128;-85
2022/10/22 08:17:35;;;;;;;21.02;15.40;;;;;;;13.82;100.00;100499.75;4973163;28;20049;-85
2022/10/22 08:20:03;;;;;;;23.95;15.73;;;;;;;13.78;100.00;100506.94;4994292;28;20518;-84
2022/10/22 08:22:29;;;;;;;22.95;15.60;;;;;;;13.92;100.00;100499.34;4994486;28;20052;-85
2022/10/22 08:24:56;;;;;;;21.40;14.63;;;;;;;13.90;100.00;100495.88;4986498;28;20054;-85
2022/10/22 08:27:23;;;;;;;18.98;15.10;;;;;;;13.94;100.00;100505.44;4971596;28;20107;-85
2022/10/22 08:29:49;;;;;;;21.27;14.48;;;;;;;13.93;100.00;100505.50;4993810;28;20034;-85
2022/10/22 08:32:16;;;;;;;20.98;13.75;;;;;;;13.90;100.00;100500.34;4973654;28;20507;-82
2022/10/22 08:34:43;;;;;;;24.10;15.25;;;;;;;14.00;100.00;100497.28;4960765;28;20100;-83
2022/10/22 08:37:13;;;;;;;21.55;14.98;;;;;;;14.00;100.00;100502.56;4974709;28;20056;-84
2022/10/22 08:39:41;;;;;;;23.50;15.55;;;;;;;13.98;100.00;100496.47;4975949;28;20037;-83
2022/10/22 08:42:40;;;;;;;21.85;14.13;;;;;;;13.96;100.00;100498.31;4960028;28;20415;-85
2022/10/22 08:45:28;;;;;;;20.90;13.60;;;;;;;13.92;100.00;100495.81;4977037;28;20042;-85
2022/10/22 08:48:13;;;;;;;20.67;13.38;;;;;;;14.02;100.00;100500.72;4960982;28;20064;-84
2022/10/22 08:50:44;;;;;;;22.15;14.32;;;;;;;14.03;100.00;100498.94;4980638;28;20045;-84
2022/10/22 08:53:26;;;;;;;23.00;16.35;;;;;;;14.08;100.00;100500.50;4980940;28;20461;-82
2022/10/22 08:55:53;;;;;;;21.38;14.18;;;;;;;14.05;100.00;100507.75;4978016;28;20037;-83
2022/10/22 08:58:39;;;;;;;25.60;15.85;;;;;;;14.09;100.00;100499.59;4973116;28;20050;-85
2022/10/22 09:01:13;;;;;;;23.35;16.25;;;;;;;14.12;100.00;100506.56;4992063;28;20038;-84
2022/10/22 09:03:56;;;;;;;19.10;14.20;;;;;;;14.17;100.00;100509.91;4977427;28;20088;-82
2022/10/22 09:06:25;;;;;;;24.23;14.13;;;;;;;14.24;100.00;100507.91;4986554;28;20053;-82
2022/10/22 09:08:53;;;;;;;20.10;14.10;;;;;;;14.19;100.00;100507.19;5000868;28;20061;-81
2022/10/22 09:11:22;;;;;;;24.27;14.98;;;;;;;14.27;100.00;100507.78;4988553;28;20041;-83
2022/10/22 09:13:50;;;;;;;20.02;13.77;;;;;;;14.23;100.00;100506.19;4986183;28;20053;-82
2022/10/22 09:16:49;;;;;;;22.92;15.20;;;;;;;14.41;100.00;100509.91;4985552;28;20399;-83
2022/10/22 09:19:44;;;;;;;20.85;14.88;;;;;;;14.33;100.00;100521.72;4989840;28;20038;-80
2022/10/22 09:22:35;;;;;;;23.70;15.45;;;;;;;14.40;100.00;100525.00;4986075;28;20066;-82
2022/10/22 09:25:21;;;;;;;23.65;14.70;;;;;;;14.52;100.00;100523.69;4992792;28;20038;-82
2022/10/22 09:27:48;;;;;;;20.80;14.55;;;;;;;14.40;100.00;100527.66;4994093;28;20042;-81
2022/10/22 09:30:18;;;;;;;20.52;14.45;;;;;;;14.45;100.00;100531.03;4975824;28;20042;-81
2022/10/22 09:32:45;;;;;;;22.30;14.73;;;;;;;14.43;100.00;100524.88;4971772;28;20061;-81
2022/10/22 09:35:13;;;;;;;21.55;15.55;;;;;;;14.40;100.00;100529.44;4957944;28;20104;-80
2022/10/22 09:37:49;;;;;;;24.13;16.17;;;;;;;14.44;100.00;100531.06;4976285;28;20387;-81
2022/10/22 09:40:23;;;;;;;23.55;16.60;;;;;;;14.42;100.00;100530.25;4982781;28;20060;-83
2022/10/22 09:42:51;;;;;;;24.10;16.30;;;;;;;14.48;100.00;100532.72;4983859;28;20073;-82
2022/10/22 09:45:22;;;;;;;22.20;15.25;;;;;;;14.41;100.00;100540.03;4992038;28;20133;-80
2022/10/22 09:47:50;;;;;;;24.00;15.15;;;;;;;14.39;100.00;100539.22;4999019;28;20469;-83
2022/10/22 09:50:41;;;;;;;21.30;15.48;;;;;;;14.39;100.00;100546.34;4977327;28;20519;-82
2022/10/22 09:53:20;;;;;;;27.10;16.67;;;;;;;14.46;100.00;100550.50;4972573;28;20065;-80
2022/10/22 09:55:56;;;;;;;22.75;15.90;;;;;;;14.39;100.00;100551.66;4960376;28;20522;-82
2022/10/22 09:58:23;;;;;;;21.52;14.75;;;;;;;14.38;100.00;100553.44;4995479;28;20033;-81
2022/10/22 10:00:54;;;;;;;23.10;14.15;;;;;;;14.41;100.00;100555.97;4955263;28;20049;-81
2022/10/22 10:03:23;;;;;;;23.25;16.10;;;;;;;14.42;100.00;100555.03;4956954;28;20057;-82
2022/10/22 10:05:53;;;;;;;25.80;17.77;;;;;;;14.54;100.00;100559.91;4983109;28;20041;-82
2022/10/22 10:08:21;;;;;;;24.42;16.63;;;;;;;14.55;100.00;100560.81;4961810;28;20046;-81
2022/10/22 10:10:49;;;;;;;22.52;15.15;;;;;;;14.49;100.00;100556.56;4954428;28;20038;-80
2022/10/22 10:13:27;;;;;;;28.77;17.80;;;;;;;14.57;100.00;100565.13;4975535;28;20203;-81
2022/10/22 10:16:11;;;;;;;29.20;20.67;;;;;;;14.59;100.00;100563.25;4989802;28;20454;-81
2022/10/22 10:18:59;;;;;;;23.10;17.27;;;;;;;14.57;100.00;100567.78;4987435;28;20056;-81
2022/10/22 10:21:34;;;;;;;24.67;17.35;;;;;;;14.66;100.00;100565.69;4991065;28;20144;-81
2022/10/22 10:24:27;;;;;;;24.27;16.25;;;;;;;14.59;100.00;100568.59;4996229;28;20165;-81
2022/10/22 10:27:01;;;;;;;24.63;17.48;;;;;;;14.55;100.00;100572.31;4956242;28;20038;-81
2022/10/22 10:29:44;;;;;;;25.58;17.05;;;;;;;14.61;100.00;100571.19;4971707;28;20503;-81
2022/10/22 10:32:42;;;;;;;26.40;18.33;;;;;;;14.60;100.00;100569.44;4967611;28;20119;-81
2022/10/22 10:35:24;;;;;;;24.25;16.52;;;;;;;14.54;100.00;100570.53;4989239;28;20050;-81
2022/10/22 10:38:30;;;;;;;24.88;17.73;;;;;;;14.54;100.00;100575.84;4977337;28;20041;-81
2022/10/22 10:41:21;;;;;;;25.38;16.77;;;;;;;14.59;100.00;100570.38;4959094;28;20058;-81
2022/10/22 10:44:13;;;;;;;21.95;14.90;;;;;;;14.61;100.00;100568.53;5005509;28;20514;-81
2022/10/22 10:47:03;;;;;;;27.25;18.02;;;;;;;14.71;100.00;100569.88;4972124;28;20038;-82
2022/10/22 10:49:32;;;;;;;25.33;16.02;;;;;;;14.85;100.00;100570.22;4958340;28;20115;-82
2022/10/22 10:52:24;;;;;;;27.23;18.23;;;;;;;14.77;100.00;100574.13;4978581;28;20084;-81
2022/10/22 10:55:03;;;;;;;24.75;16.50;;;;;;;14.84;100.00;100570.28;5007953;28;20755;-82
2022/10/22 10:57:45;;;;;;;23.02;16.67;;;;;;;15.01;100.00;100566.97;4988799;28;20046;-81
2022/10/22 11:00:18;;;;;;;21.50;15.57;;;;;;;15.12;100.00;100570.03;4977243;28;20080;-81
2022/10/22 11:03:26;;;;;;;23.20;15.93;;;;;;;15.24;100.00;100574.03;4971323;28;20107;-81
2022/10/22 11:06:02;;;;;;;22.45;15.35;;;;;;;15.35;100.00;100564.66;5011650;28;20070;-82
2022/10/22 11:08:31;;;;;;;24.75;16.58;;;;;;;15.45;100.00;100566.00;4969465;28;20486;-81
2022/10/22 11:11:11;;;;;;;23.08;15.18;;;;;;;15.53;100.00;100565.66;4969374;28;20054;-80
2022/10/22 11:13:51;;;;;;;22.80;15.13;;;;;;;15.61;100.00;100574.22;4990272;28;20422;-82
2022/10/22 11:16:22;;;;;;;21.92;14.77;;;;;;;15.71;100.00;100567.56;5002945;28;20385;-80
2022/10/22 11:19:02;;;;;;;23.83;15.23;;;;;;;15.70;100.00;100568.50;5003990;28;20309;-81
2022/10/22 11:21:56;;;;;;;21.85;16.25;;;;;;;15.62;100.00;100570.63;4968047;28;21085;-81
2022/10/22 11:24:37;;;;;;;26.67;16.95;;;;;;;15.64;100.00;100574.13;5003660;28;20064;-80
2022/10/22 11:27:09;;;;;;;27.50;17.45;;;;;;;15.67;100.00;100558.00;4990806;28;20049;-81
2022/10/22 11:29:42;;;;;;;26.67;16.67;;;;;;;15.68;100.00;100565.06;4967559;28;20242;-80
2022/10/22 11:32:16;;;;;;;27.73;15.80;;;;;;;15.69;100.00;100572.09;4969132;28;20042;-81
2022/10/22 11:34:49;;;;;;;25.30;15.73;;;;;;;15.50;100.00;100573.78;4986506;28;20596;-81
2022/10/22 11:37:16;;;;;;;25.33;15.38;;;;;;;15.51;100.00;100567.53;4965343;28;20042;-81
2022/10/22 11:40:14;;;;;;;24.80;15.43;;;;;;;15.72;100.00;100565.78;4972499;28;20368;-81
2022/10/22 11:42:46;;;;;;;18.70;12.32;;;;;;;15.64;100.00;100571.47;4954689;28;20056;-80
2022/10/22 11:45:13;;;;;;;24.90;14.95;;;;;;;15.72;100.00;100568.44;4984425;28;20289;-81
2022/10/22 11:47:58;;;;;;;25.55;14.43;;;;;;;15.80;100.00;100566.31;4983311;28;20046;-80
2022/10/22 11:50:27;;;;;;;22.00;14.18;;;;;;;15.83;100.00;100570.66;4976705;28;20042;-81
2022/10/22 11:53:01;;;;;;;24.77;15.13;;;;;;;15.86;100.00;100576.72;5002319;28;20077;-81
2022/10/22 11:55:47;;;;;;;;;;;;;;;15.74;100.00;100586.09;4967389;28;20037;-81
2022/10/22 11:58:33;;;;;;;24.65;14.65;;;;;;;15.73;100.00;100584.38;4968369;28;20345;-82
2022/10/22 12:01:08;;;;;;;21.38;13.43;;;;;;;15.73;100.00;100579.06;4998267;28;20045;-81
2022/10/22 12:03:42;;;;;;;21.70;15.18;;;;;;;15.83;100.00;100589.31;5006660;28;20551;-81
2022/10/22 12:06:14;;;;;;;22.38;13.55;;;;;;;15.45;100.00;100583.75;4980789;28;20046;-81
2022/10/22 12:08:53;;;;;;;20.83;12.25;;;;;;;15.53;100.00;100581.66;4982075;28;20430;-82
2022/10/22 12:11:46;;;;;;;18.65;11.88;;;;;;;15.77;100.00;100593.09;4987269;28;20127;-82
2022/10/22 12:14:26;;;;;;;24.80;13.60;;;;;;;15.89;100.00;100583.69;4968911;28;20054;-82
2022/10/22 12:17:11;;;;;;;22.35;14.40;;;;;;;15.88;100.00;100576.63;4959924;28;20057;-83
2022/10/22 12:19:40;;;;;;;24.67;14.32;;;;;;;15.90;100.00;100580.13;4995042;28;20034;-81
2022/10/22 12:22:12;;;;;;;21.65;12.85;;;;;;;16.00;100.00;100582.31;4971481;28;20323;-82
2022/10/22 12:24:45;;;;;;;20.95;12.93;;;;;;;16.18;100.00;100585.94;4949834;28;20490;-81
2022/10/22 12:27:34;;;;;;;23.05;13.32;;;;;;;16.34;100.00;100588.78;4972272;28;20165;-81
2022/10/22 12:30:16;;;;;;;25.15;12.57;;;;;;;16.38;100.00;100589.50;4988547;28;20085;-82
2022/10/22 12:32:42;;;;;;;23.17;13.82;;;;;;;16.30;100.00;100596.03;4982295;28;20049;-81
2022/10/22 12:35:18;;;;;;;22.10;14.05;;;;;;;16.38;100.00;100587.69;4980923;28;20443;-83
2022/10/22 12:37:48;;;;;;;16.80;12.07;;;;;;;16.30;100.00;100589.84;4984645;28;20088;-83
2022/10/22 12:40:29;;;;;;;23.08;12.50;;;;;;;16.39;100.00;100592.09;4960006;28;20045;-84
2022/10/22 12:43:01;;;;;;;17.95;11.73;;;;;;;16.36;100.00;100586.06;4956512;28;20054;-82
2022/10/22 12:45:30;;;;;;;21.77;12.98;;;;;;;16.43;100.00;100590.19;4976982;28;20336;-83
2022/10/22 12:47:58;;;;;;;21.33;12.48;;;;;;;16.49;100.00;100587.25;4978740;28;20050;-84
2022/10/22 12:50:52;;;;;;;21.60;12.68;;;;;;;16.58;100.00;100577.00;4980315;28;20046;-84
2022/10/22 12:53:23;;;;;;;20.10;13.35;;;;;;;16.60;100.00;100585.78;4959944;28;20054;-83